sensor_id;sensor_type;location;lat;lon;timestamp;temperature;humidity
22235;DHT22;11286;45.596;5.284;2022-12-18T00:00:42;0.50;99.90
22235;DHT22;11286;45.596;5.284;2022-12-18T00:03:08;0.50;99.90
22235;DHT22;11286;45.596;5.284;2022-12-18T00:05:34;0.50;99.90
22235;DHT22;11286;45.596;5.284;2022-12-18T00:08:00;0.50;99.90
22235;DHT22;11286;45.596;5.284;2022-12-18T00:10:27;0.50;99.90
22235;DHT22;11286;45.596;5.284;2022-12-18T00:12:53;0.50;99.90
22235;DHT22;11286;45.596;5.284;2022-12-18T00:15:19;0.50;99.90
22235;DHT22;11286;45.596;5.284;2022-12-18T00:17:44;0.30;99.90
22235;DHT22;11286;45.596;5.284;2022-12-18T00:20:10;0.30;99.90
22235;DHT22;11286;45.596;5.284;2022-12-18T00:22:36;0.30;99.90
22235;DHT22;11286;45.596;5.284;2022-12-18T00:25:02;0.30;99.90
22235;DHT22;11286;45.596;5.284;2022-12-18T00:27:27;-0.10;99.90
22235;DHT22;11286;45.596;5.284;2022-12-18T00:29:53;-0.20;99.90
22235;DHT22;11286;45.596;5.284;2022-12-18T00:32:18;-0.40;99.90
22235;DHT22;11286;45.596;5.284;2022-12-18T00:34:44;-0.30;99.90
22235;DHT22;11286;45.596;5.284;2022-12-18T00:37:10;-0.30;99.90
22235;DHT22;11286;45.596;5.284;2022-12-18T00:39:35;-0.30;99.90
22235;DHT22;11286;45.596;5.284;2022-12-18T00:42:01;-0.20;99.90
22235;DHT22;11286;45.596;5.284;2022-12-18T00:44:45;-0.50;99.90
22235;DHT22;11286;45.596;5.284;2022-12-18T00:47:10;-0.60;99.90
22235;DHT22;11286;45.596;5.284;2022-12-18T00:49:36;-0.40;99.90
22235;DHT22;11286;45.596;5.284;2022-12-18T00:52:01;-0.40;99.90
22235;DHT22;11286;45.596;5.284;2022-12-18T00:54:27;-0.40;99.90
22235;DHT22;11286;45.596;5.284;2022-12-18T00:56:53;-0.50;99.90
22235;DHT22;11286;45.596;5.284;2022-12-18T00:59:20;-0.50;99.90
22235;DHT22;11286;45.596;5.284;2022-12-18T01:01:46;-0.50;99.90
22235;DHT22;11286;45.596;5.284;2022-12-18T01:04:12;-0.50;99.90
22235;DHT22;11286;45.596;5.284;2022-12-18T01:06:38;-0.60;99.90
22235;DHT22;11286;45.596;5.284;2022-12-18T01:09:04;-0.60;99.90
22235;DHT22;11286;45.596;5.284;2022-12-18T01:11:30;-0.50;99.90
22235;DHT22;11286;45.596;5.284;2022-12-18T01:13:56;-0.20;99.90
22235;DHT22;11286;45.596;5.284;2022-12-18T01:16:22;-0.60;99.90
22235;DHT22;11286;45.596;5.284;2022-12-18T01:18:51;-0.60;99.90
22235;DHT22;11286;45.596;5.284;2022-12-18T01:21:17;-0.70;99.90
22235;DHT22;11286;45.596;5.284;2022-12-18T01:23:43;-0.70;99.90
22235;DHT22;11286;45.596;5.284;2022-12-18T01:26:11;-0.70;99.90
22235;DHT22;11286;45.596;5.284;2022-12-18T01:28:37;-0.70;99.90
22235;DHT22;11286;45.596;5.284;2022-12-18T01:33:36;-0.40;99.90
22235;DHT22;11286;45.596;5.284;2022-12-18T01:36:01;-0.80;99.90
22235;DHT22;11286;45.596;5.284;2022-12-18T01:38:28;-0.90;99.90
22235;DHT22;11286;45.596;5.284;2022-12-18T01:41:01;-0.90;99.90
22235;DHT22;11286;45.596;5.284;2022-12-18T01:46:16;-0.80;99.90
22235;DHT22;11286;45.596;5.284;2022-12-18T01:48:44;-0.90;99.90
22235;DHT22;11286;45.596;5.284;2022-12-18T01:51:12;-0.90;99.90
22235;DHT22;11286;45.596;5.284;2022-12-18T01:53:40;-0.90;99.90
22235;DHT22;11286;45.596;5.284;2022-12-18T01:56:06;-0.90;99.90
22235;DHT22;11286;45.596;5.284;2022-12-18T02:01:05;-1.00;99.90
22235;DHT22;11286;45.596;5.284;2022-12-18T02:03:31;-1.10;99.90
22235;DHT22;11286;45.596;5.284;2022-12-18T02:06:20;-1.00;99.90
22235;DHT22;11286;45.596;5.284;2022-12-18T02:08:49;-1.00;99.90
22235;DHT22;11286;45.596;5.284;2022-12-18T02:17:17;-1.00;99.90
22235;DHT22;11286;45.596;5.284;2022-12-18T02:25:38;-1.10;99.90
22235;DHT22;11286;45.596;5.284;2022-12-18T02:28:09;-1.10;99.90
22235;DHT22;11286;45.596;5.284;2022-12-18T02:30:37;-1.00;99.90
22235;DHT22;11286;45.596;5.284;2022-12-18T02:33:06;-1.10;99.90
22235;DHT22;11286;45.596;5.284;2022-12-18T02:35:34;-1.10;99.90
22235;DHT22;11286;45.596;5.284;2022-12-18T02:38:02;-1.10;99.90
22235;DHT22;11286;45.596;5.284;2022-12-18T02:40:28;-1.00;99.90
22235;DHT22;11286;45.596;5.284;2022-12-18T02:42:55;-1.00;99.90
22235;DHT22;11286;45.596;5.284;2022-12-18T02:45:21;-1.00;99.90
22235;DHT22;11286;45.596;5.284;2022-12-18T02:47:49;-0.90;99.90
22235;DHT22;11286;45.596;5.284;2022-12-18T02:50:50;-0.80;99.90
22235;DHT22;11286;45.596;5.284;2022-12-18T02:53:29;-0.80;99.90
22235;DHT22;11286;45.596;5.284;2022-12-18T02:56:17;-0.90;99.90
22235;DHT22;11286;45.596;5.284;2022-12-18T03:04:26;-0.90;99.90
22235;DHT22;11286;45.596;5.284;2022-12-18T03:06:57;-0.90;99.90
22235;DHT22;11286;45.596;5.284;2022-12-18T03:09:33;-0.90;99.90
22235;DHT22;11286;45.596;5.284;2022-12-18T03:12:30;-0.90;99.90
22235;DHT22;11286;45.596;5.284;2022-12-18T03:17:34;-0.90;99.90
22235;DHT22;11286;45.596;5.284;2022-12-18T03:20:12;-0.80;99.90
22235;DHT22;11286;45.596;5.284;2022-12-18T03:22:40;-0.90;99.90
22235;DHT22;11286;45.596;5.284;2022-12-18T03:25:11;-0.80;99.90
22235;DHT22;11286;45.596;5.284;2022-12-18T03:27:42;-0.80;99.90
22235;DHT22;11286;45.596;5.284;2022-12-18T03:30:12;-0.80;99.90
22235;DHT22;11286;45.596;5.284;2022-12-18T03:32:48;-0.80;99.90
22235;DHT22;11286;45.596;5.284;2022-12-18T03:35:20;-0.70;99.90
22235;DHT22;11286;45.596;5.284;2022-12-18T03:37:46;-0.80;99.90
22235;DHT22;11286;45.596;5.284;2022-12-18T03:40:12;-0.80;99.90
22235;DHT22;11286;45.596;5.284;2022-12-18T03:42:49;-0.80;99.90
22235;DHT22;11286;45.596;5.284;2022-12-18T03:45:27;-0.80;99.90
22235;DHT22;11286;45.596;5.284;2022-12-18T03:48:07;-0.70;99.90
22235;DHT22;11286;45.596;5.284;2022-12-18T03:53:44;-0.60;99.90
22235;DHT22;11286;45.596;5.284;2022-12-18T03:56:14;-0.60;99.90
22235;DHT22;11286;45.596;5.284;2022-12-18T03:58:42;-0.60;99.90
22235;DHT22;11286;45.596;5.284;2022-12-18T04:01:10;-0.60;99.90
22235;DHT22;11286;45.596;5.284;2022-12-18T04:03:39;-0.50;99.90
22235;DHT22;11286;45.596;5.284;2022-12-18T04:06:05;-0.50;99.90
22235;DHT22;11286;45.596;5.284;2022-12-18T04:08:32;-0.50;99.90
22235;DHT22;11286;45.596;5.284;2022-12-18T04:11:00;-0.60;99.90
22235;DHT22;11286;45.596;5.284;2022-12-18T04:13:34;-0.60;99.90
22235;DHT22;11286;45.596;5.284;2022-12-18T04:16:00;-0.50;99.90
22235;DHT22;11286;45.596;5.284;2022-12-18T04:18:26;-0.60;99.90
22235;DHT22;11286;45.596;5.284;2022-12-18T04:20:52;-0.60;99.90
22235;DHT22;11286;45.596;5.284;2022-12-18T04:23:18;-0.40;99.90
22235;DHT22;11286;45.596;5.284;2022-12-18T04:25:43;0.00;99.90
22235;DHT22;11286;45.596;5.284;2022-12-18T04:28:09;-0.60;99.90
22235;DHT22;11286;45.596;5.284;2022-12-18T04:30:35;-0.60;99.90
22235;DHT22;11286;45.596;5.284;2022-12-18T04:33:00;-0.50;99.90
22235;DHT22;11286;45.596;5.284;2022-12-18T04:35:26;-0.50;99.90
22235;DHT22;11286;45.596;5.284;2022-12-18T04:37:52;-0.50;99.90
22235;DHT22;11286;45.596;5.284;2022-12-18T04:40:18;-0.60;99.90
22235;DHT22;11286;45.596;5.284;2022-12-18T04:42:43;-0.50;99.90
22235;DHT22;11286;45.596;5.284;2022-12-18T04:45:09;-0.50;99.90
22235;DHT22;11286;45.596;5.284;2022-12-18T04:47:35;-0.50;99.90
22235;DHT22;11286;45.596;5.284;2022-12-18T04:50:01;-0.50;99.90
22235;DHT22;11286;45.596;5.284;2022-12-18T04:52:26;-0.50;99.90
22235;DHT22;11286;45.596;5.284;2022-12-18T04:54:52;-0.60;99.90
22235;DHT22;11286;45.596;5.284;2022-12-18T04:57:18;-0.60;99.90
22235;DHT22;11286;45.596;5.284;2022-12-18T04:59:44;-0.70;99.90
22235;DHT22;11286;45.596;5.284;2022-12-18T05:02:10;-0.70;99.90
22235;DHT22;11286;45.596;5.284;2022-12-18T05:04:35;-0.80;99.90
22235;DHT22;11286;45.596;5.284;2022-12-18T05:07:01;-0.70;99.90
22235;DHT22;11286;45.596;5.284;2022-12-18T05:09:26;-0.70;99.90
22235;DHT22;11286;45.596;5.284;2022-12-18T05:11:52;-0.80;99.90
22235;DHT22;11286;45.596;5.284;2022-12-18T05:14:18;-0.80;99.90
22235;DHT22;11286;45.596;5.284;2022-12-18T05:16:43;-0.80;99.90
22235;DHT22;11286;45.596;5.284;2022-12-18T05:19:09;-0.80;99.90
22235;DHT22;11286;45.596;5.284;2022-12-18T05:21:34;-0.80;99.90
22235;DHT22;11286;45.596;5.284;2022-12-18T05:24:00;-0.70;99.90
22235;DHT22;11286;45.596;5.284;2022-12-18T05:26:26;-0.70;99.90
22235;DHT22;11286;45.596;5.284;2022-12-18T05:28:51;-0.70;99.90
22235;DHT22;11286;45.596;5.284;2022-12-18T05:31:17;-0.60;99.90
22235;DHT22;11286;45.596;5.284;2022-12-18T05:33:43;-0.60;99.90
22235;DHT22;11286;45.596;5.284;2022-12-18T05:36:10;-0.60;99.90
22235;DHT22;11286;45.596;5.284;2022-12-18T05:38:37;-0.60;99.90
22235;DHT22;11286;45.596;5.284;2022-12-18T05:41:04;-0.60;99.90
22235;DHT22;11286;45.596;5.284;2022-12-18T05:43:30;-0.60;99.90
22235;DHT22;11286;45.596;5.284;2022-12-18T05:45:56;-0.50;99.90
22235;DHT22;11286;45.596;5.284;2022-12-18T05:48:22;-0.50;99.90
22235;DHT22;11286;45.596;5.284;2022-12-18T05:50:49;-0.60;99.90
22235;DHT22;11286;45.596;5.284;2022-12-18T05:53:16;-0.60;99.90
22235;DHT22;11286;45.596;5.284;2022-12-18T05:55:43;-0.60;99.90
22235;DHT22;11286;45.596;5.284;2022-12-18T05:58:10;-0.50;99.90
22235;DHT22;11286;45.596;5.284;2022-12-18T06:00:39;-0.50;99.90
22235;DHT22;11286;45.596;5.284;2022-12-18T06:03:08;-0.50;99.90
22235;DHT22;11286;45.596;5.284;2022-12-18T06:05:39;-0.50;99.90
22235;DHT22;11286;45.596;5.284;2022-12-18T06:08:05;-0.40;99.90
22235;DHT22;11286;45.596;5.284;2022-12-18T06:10:31;-0.50;99.90
22235;DHT22;11286;45.596;5.284;2022-12-18T06:12:57;-0.50;99.90
22235;DHT22;11286;45.596;5.284;2022-12-18T06:15:23;-0.60;99.90
22235;DHT22;11286;45.596;5.284;2022-12-18T06:17:49;-0.60;99.90
22235;DHT22;11286;45.596;5.284;2022-12-18T06:20:15;-0.60;99.90
22235;DHT22;11286;45.596;5.284;2022-12-18T06:22:41;-0.50;99.90
22235;DHT22;11286;45.596;5.284;2022-12-18T06:25:07;-0.70;99.90
22235;DHT22;11286;45.596;5.284;2022-12-18T06:27:33;-0.70;99.90
22235;DHT22;11286;45.596;5.284;2022-12-18T06:29:59;-0.80;99.90
22235;DHT22;11286;45.596;5.284;2022-12-18T06:32:25;-0.70;99.90
22235;DHT22;11286;45.596;5.284;2022-12-18T06:34:51;-0.60;99.90
22235;DHT22;11286;45.596;5.284;2022-12-18T06:37:17;-0.60;99.90
22235;DHT22;11286;45.596;5.284;2022-12-18T06:39:43;-0.60;99.90
22235;DHT22;11286;45.596;5.284;2022-12-18T06:42:08;-0.60;99.90
22235;DHT22;11286;45.596;5.284;2022-12-18T06:44:34;-0.20;99.90
22235;DHT22;11286;45.596;5.284;2022-12-18T06:46:59;-0.60;99.90
22235;DHT22;11286;45.596;5.284;2022-12-18T06:49:25;-0.50;99.90
22235;DHT22;11286;45.596;5.284;2022-12-18T06:51:51;-0.40;99.90
22235;DHT22;11286;45.596;5.284;2022-12-18T06:54:17;-0.40;99.90
22235;DHT22;11286;45.596;5.284;2022-12-18T06:56:45;-0.30;99.90
22235;DHT22;11286;45.596;5.284;2022-12-18T06:59:12;-0.30;99.90
22235;DHT22;11286;45.596;5.284;2022-12-18T07:01:37;0.00;99.90
22235;DHT22;11286;45.596;5.284;2022-12-18T07:04:03;0.40;99.90
22235;DHT22;11286;45.596;5.284;2022-12-18T07:06:28;-0.20;99.90
22235;DHT22;11286;45.596;5.284;2022-12-18T07:08:54;-0.30;99.90
22235;DHT22;11286;45.596;5.284;2022-12-18T07:11:20;-0.30;99.90
22235;DHT22;11286;45.596;5.284;2022-12-18T07:13:46;-0.30;99.90
22235;DHT22;11286;45.596;5.284;2022-12-18T07:16:15;-0.30;99.90
22235;DHT22;11286;45.596;5.284;2022-12-18T07:18:41;-0.40;99.90
22235;DHT22;11286;45.596;5.284;2022-12-18T07:21:11;-0.30;99.90
22235;DHT22;11286;45.596;5.284;2022-12-18T07:23:38;-0.20;99.90
22235;DHT22;11286;45.596;5.284;2022-12-18T07:26:05;-0.10;99.90
22235;DHT22;11286;45.596;5.284;2022-12-18T07:28:31;-0.10;99.90
22235;DHT22;11286;45.596;5.284;2022-12-18T07:30:57;0.00;99.90
22235;DHT22;11286;45.596;5.284;2022-12-18T07:33:24;0.20;99.90
22235;DHT22;11286;45.596;5.284;2022-12-18T07:35:50;1.00;99.90
22235;DHT22;11286;45.596;5.284;2022-12-18T07:38:15;1.50;99.90
22235;DHT22;11286;45.596;5.284;2022-12-18T07:40:41;1.60;99.90
22235;DHT22;11286;45.596;5.284;2022-12-18T07:43:06;1.70;99.90
22235;DHT22;11286;45.596;5.284;2022-12-18T07:45:32;1.80;99.90
22235;DHT22;11286;45.596;5.284;2022-12-18T07:47:58;2.00;99.90
22235;DHT22;11286;45.596;5.284;2022-12-18T07:50:23;2.10;99.90
22235;DHT22;11286;45.596;5.284;2022-12-18T07:52:49;2.50;99.90
22235;DHT22;11286;45.596;5.284;2022-12-18T07:55:15;4.40;99.90
22235;DHT22;11286;45.596;5.284;2022-12-18T07:57:40;4.50;99.90
22235;DHT22;11286;45.596;5.284;2022-12-18T08:00:07;4.50;99.90
22235;DHT22;11286;45.596;5.284;2022-12-18T08:02:33;5.00;99.90
22235;DHT22;11286;45.596;5.284;2022-12-18T08:04:58;6.20;99.90
22235;DHT22;11286;45.596;5.284;2022-12-18T08:07:24;6.80;99.90
22235;DHT22;11286;45.596;5.284;2022-12-18T08:09:50;7.20;99.90
22235;DHT22;11286;45.596;5.284;2022-12-18T08:12:15;6.50;99.90
22235;DHT22;11286;45.596;5.284;2022-12-18T08:14:41;6.30;99.90
22235;DHT22;11286;45.596;5.284;2022-12-18T08:17:06;4.80;99.90
22235;DHT22;11286;45.596;5.284;2022-12-18T08:19:32;4.70;99.90
22235;DHT22;11286;45.596;5.284;2022-12-18T08:21:58;6.10;99.90
22235;DHT22;11286;45.596;5.284;2022-12-18T08:24:23;7.70;99.90
22235;DHT22;11286;45.596;5.284;2022-12-18T08:26:49;9.10;99.90
22235;DHT22;11286;45.596;5.284;2022-12-18T08:29:16;12.30;99.90
22235;DHT22;11286;45.596;5.284;2022-12-18T08:31:41;13.20;99.90
22235;DHT22;11286;45.596;5.284;2022-12-18T08:34:08;12.70;99.90
22235;DHT22;11286;45.596;5.284;2022-12-18T08:36:33;12.40;99.90
22235;DHT22;11286;45.596;5.284;2022-12-18T08:38:59;12.50;99.90
22235;DHT22;11286;45.596;5.284;2022-12-18T08:41:25;13.20;99.90
22235;DHT22;11286;45.596;5.284;2022-12-18T08:43:50;15.60;99.90
22235;DHT22;11286;45.596;5.284;2022-12-18T08:46:40;16.20;99.90
22235;DHT22;11286;45.596;5.284;2022-12-18T08:49:07;17.10;99.90
22235;DHT22;11286;45.596;5.284;2022-12-18T08:51:33;17.30;99.90
22235;DHT22;11286;45.596;5.284;2022-12-18T08:53:59;18.00;99.90
22235;DHT22;11286;45.596;5.284;2022-12-18T08:56:24;17.10;99.90
22235;DHT22;11286;45.596;5.284;2022-12-18T08:58:54;17.70;99.90
22235;DHT22;11286;45.596;5.284;2022-12-18T09:01:20;18.80;99.90
22235;DHT22;11286;45.596;5.284;2022-12-18T09:03:46;18.60;99.90
22235;DHT22;11286;45.596;5.284;2022-12-18T09:06:16;18.10;99.90
22235;DHT22;11286;45.596;5.284;2022-12-18T09:08:43;17.40;99.90
22235;DHT22;11286;45.596;5.284;2022-12-18T09:11:14;15.60;99.90
22235;DHT22;11286;45.596;5.284;2022-12-18T09:13:40;14.20;99.90
22235;DHT22;11286;45.596;5.284;2022-12-18T09:16:06;14.00;99.90
22235;DHT22;11286;45.596;5.284;2022-12-18T09:18:32;15.80;99.90
22235;DHT22;11286;45.596;5.284;2022-12-18T09:20:58;14.90;99.90
22235;DHT22;11286;45.596;5.284;2022-12-18T09:23:23;17.40;99.90
22235;DHT22;11286;45.596;5.284;2022-12-18T09:25:49;16.80;99.90
22235;DHT22;11286;45.596;5.284;2022-12-18T09:28:17;18.70;99.90
22235;DHT22;11286;45.596;5.284;2022-12-18T09:30:48;19.30;99.90
22235;DHT22;11286;45.596;5.284;2022-12-18T09:33:14;17.70;99.90
22235;DHT22;11286;45.596;5.284;2022-12-18T09:35:41;19.60;99.90
22235;DHT22;11286;45.596;5.284;2022-12-18T09:38:09;18.30;99.90
22235;DHT22;11286;45.596;5.284;2022-12-18T09:40:41;16.90;99.90
22235;DHT22;11286;45.596;5.284;2022-12-18T09:43:15;18.50;99.90
22235;DHT22;11286;45.596;5.284;2022-12-18T09:45:44;18.00;99.90
22235;DHT22;11286;45.596;5.284;2022-12-18T09:48:32;15.70;99.90
22235;DHT22;11286;45.596;5.284;2022-12-18T09:51:13;15.40;99.90
22235;DHT22;11286;45.596;5.284;2022-12-18T09:53:44;16.30;99.90
22235;DHT22;11286;45.596;5.284;2022-12-18T09:56:18;16.30;99.90
22235;DHT22;11286;45.596;5.284;2022-12-18T09:58:55;14.60;99.90
22235;DHT22;11286;45.596;5.284;2022-12-18T10:01:23;15.10;99.90
22235;DHT22;11286;45.596;5.284;2022-12-18T10:03:50;14.60;99.90
22235;DHT22;11286;45.596;5.284;2022-12-18T10:06:28;14.90;99.90
22235;DHT22;11286;45.596;5.284;2022-12-18T10:09:46;16.40;99.90
22235;DHT22;11286;45.596;5.284;2022-12-18T10:18:39;16.00;99.90
22235;DHT22;11286;45.596;5.284;2022-12-18T10:20:54;15.80;99.90
22235;DHT22;11286;45.596;5.284;2022-12-18T10:26:24;17.40;99.90
22235;DHT22;11286;45.596;5.284;2022-12-18T10:28:51;16.40;99.90
22235;DHT22;11286;45.596;5.284;2022-12-18T10:31:22;17.30;99.90
22235;DHT22;11286;45.596;5.284;2022-12-18T10:33:48;16.70;99.90
22235;DHT22;11286;45.596;5.284;2022-12-18T10:36:14;17.20;99.90
22235;DHT22;11286;45.596;5.284;2022-12-18T10:38:40;16.50;99.90
22235;DHT22;11286;45.596;5.284;2022-12-18T10:43:44;20.00;99.90
22235;DHT22;11286;45.596;5.284;2022-12-18T10:48:55;19.50;99.90
22235;DHT22;11286;45.596;5.284;2022-12-18T10:51:34;19.50;99.90
22235;DHT22;11286;45.596;5.284;2022-12-18T10:54:17;19.30;99.90
22235;DHT22;11286;45.596;5.284;2022-12-18T10:56:44;18.00;99.90
22235;DHT22;11286;45.596;5.284;2022-12-18T10:59:13;19.10;99.90
22235;DHT22;11286;45.596;5.284;2022-12-18T11:07:06;18.70;99.90
22235;DHT22;11286;45.596;5.284;2022-12-18T11:09:34;19.50;99.90
22235;DHT22;11286;45.596;5.284;2022-12-18T11:12:02;19.70;99.90
22235;DHT22;11286;45.596;5.284;2022-12-18T11:14:32;20.80;99.90
22235;DHT22;11286;45.596;5.284;2022-12-18T11:16:59;18.10;99.90
22235;DHT22;11286;45.596;5.284;2022-12-18T11:19:30;18.00;99.90
22235;DHT22;11286;45.596;5.284;2022-12-18T11:21:57;17.40;99.90
22235;DHT22;11286;45.596;5.284;2022-12-18T11:24:30;17.30;99.90
22235;DHT22;11286;45.596;5.284;2022-12-18T11:27:01;18.60;99.90
22235;DHT22;11286;45.596;5.284;2022-12-18T11:29:38;18.50;99.90
22235;DHT22;11286;45.596;5.284;2022-12-18T11:34:53;18.10;99.90
22235;DHT22;11286;45.596;5.284;2022-12-18T11:37:21;18.30;99.90
22235;DHT22;11286;45.596;5.284;2022-12-18T11:39:52;19.90;99.90
22235;DHT22;11286;45.596;5.284;2022-12-18T11:53:11;19.90;99.90
22235;DHT22;11286;45.596;5.284;2022-12-18T12:00:47;21.20;99.90
22235;DHT22;11286;45.596;5.284;2022-12-18T12:06:34;21.30;99.90
22235;DHT22;11286;45.596;5.284;2022-12-18T12:15:05;20.00;99.90
22235;DHT22;11286;45.596;5.284;2022-12-18T12:17:49;19.50;99.90
22235;DHT22;11286;45.596;5.284;2022-12-18T12:20:19;19.90;99.90
22235;DHT22;11286;45.596;5.284;2022-12-18T12:31:12;19.60;99.90
22235;DHT22;11286;45.596;5.284;2022-12-18T12:34:03;19.30;99.90
22235;DHT22;11286;45.596;5.284;2022-12-18T12:39:31;19.60;99.90
22235;DHT22;11286;45.596;5.284;2022-12-18T12:41:59;19.50;99.90
22235;DHT22;11286;45.596;5.284;2022-12-18T12:44:53;19.10;99.90
22235;DHT22;11286;45.596;5.284;2022-12-18T12:47:29;19.70;99.90
22235;DHT22;11286;45.596;5.284;2022-12-18T12:49:58;20.50;99.90
22235;DHT22;11286;45.596;5.284;2022-12-18T12:52:35;20.10;99.90
22235;DHT22;11286;45.596;5.284;2022-12-18T12:55:02;19.70;99.90
22235;DHT22;11286;45.596;5.284;2022-12-18T12:57:38;20.40;99.90
22235;DHT22;11286;45.596;5.284;2022-12-18T13:00:09;19.70;99.90
22235;DHT22;11286;45.596;5.284;2022-12-18T13:08:03;19.80;99.90
22235;DHT22;11286;45.596;5.284;2022-12-18T13:10:39;21.00;99.90
22235;DHT22;11286;45.596;5.284;2022-12-18T13:13:06;21.10;99.90
22235;DHT22;11286;45.596;5.284;2022-12-18T13:15:43;21.70;99.90
22235;DHT22;11286;45.596;5.284;2022-12-18T13:20:40;21.00;99.90
22235;DHT22;11286;45.596;5.284;2022-12-18T13:31:01;20.10;99.90
22235;DHT22;11286;45.596;5.284;2022-12-18T13:33:38;19.60;99.90
22235;DHT22;11286;45.596;5.284;2022-12-18T13:38:40;18.40;99.90
22235;DHT22;11286;45.596;5.284;2022-12-18T13:41:25;18.60;99.90
22235;DHT22;11286;45.596;5.284;2022-12-18T13:43:56;18.00;99.90
22235;DHT22;11286;45.596;5.284;2022-12-18T13:46:27;18.10;99.90
22235;DHT22;11286;45.596;5.284;2022-12-18T13:52:21;19.70;99.90
22235;DHT22;11286;45.596;5.284;2022-12-18T13:54:57;19.40;99.90
22235;DHT22;11286;45.596;5.284;2022-12-18T13:57:33;19.40;99.90
22235;DHT22;11286;45.596;5.284;2022-12-18T14:02:49;18.20;99.90
22235;DHT22;11286;45.596;5.284;2022-12-18T14:05:25;18.40;99.90
22235;DHT22;11286;45.596;5.284;2022-12-18T14:07:52;19.20;99.90
22235;DHT22;11286;45.596;5.284;2022-12-18T14:10:19;18.50;99.90
22235;DHT22;11286;45.596;5.284;2022-12-18T14:12:47;18.60;99.90
22235;DHT22;11286;45.596;5.284;2022-12-18T14:15:39;19.20;99.90
22235;DHT22;11286;45.596;5.284;2022-12-18T14:18:21;18.20;99.90
22235;DHT22;11286;45.596;5.284;2022-12-18T14:20:49;18.10;99.90
22235;DHT22;11286;45.596;5.284;2022-12-18T14:26:02;17.40;99.90
22235;DHT22;11286;45.596;5.284;2022-12-18T14:28:29;17.60;99.90
22235;DHT22;11286;45.596;5.284;2022-12-18T14:30:55;17.50;99.90
22235;DHT22;11286;45.596;5.284;2022-12-18T14:33:27;17.50;99.90
22235;DHT22;11286;45.596;5.284;2022-12-18T14:36:02;17.20;99.90
22235;DHT22;11286;45.596;5.284;2022-12-18T14:38:37;16.80;99.90
22235;DHT22;11286;45.596;5.284;2022-12-18T14:41:11;16.40;99.90
22235;DHT22;11286;45.596;5.284;2022-12-18T14:43:39;16.60;99.90
22235;DHT22;11286;45.596;5.284;2022-12-18T14:46:34;17.50;99.90
22235;DHT22;11286;45.596;5.284;2022-12-18T14:51:58;16.80;99.90
22235;DHT22;11286;45.596;5.284;2022-12-18T14:54:25;16.50;99.90
22235;DHT22;11286;45.596;5.284;2022-12-18T14:59:24;16.70;99.90
22235;DHT22;11286;45.596;5.284;2022-12-18T15:02:04;14.30;99.90
22235;DHT22;11286;45.596;5.284;2022-12-18T15:04:37;13.90;99.90
22235;DHT22;11286;45.596;5.284;2022-12-18T15:07:14;13.00;99.90
22235;DHT22;11286;45.596;5.284;2022-12-18T15:10:09;12.40;99.90
22235;DHT22;11286;45.596;5.284;2022-12-18T15:12:40;13.00;99.90
22235;DHT22;11286;45.596;5.284;2022-12-18T15:20:27;13.00;99.90
22235;DHT22;11286;45.596;5.284;2022-12-18T15:22:53;13.70;99.90
22235;DHT22;11286;45.596;5.284;2022-12-18T15:25:37;13.00;99.90
22235;DHT22;11286;45.596;5.284;2022-12-18T15:34:00;12.50;99.90
22235;DHT22;11286;45.596;5.284;2022-12-18T15:36:25;12.30;99.90
22235;DHT22;11286;45.596;5.284;2022-12-18T15:38:55;11.30;99.90
22235;DHT22;11286;45.596;5.284;2022-12-18T15:41:22;11.60;99.90
22235;DHT22;11286;45.596;5.284;2022-12-18T15:43:49;11.60;99.90
22235;DHT22;11286;45.596;5.284;2022-12-18T15:46:24;11.60;99.90
22235;DHT22;11286;45.596;5.284;2022-12-18T15:48:52;10.90;99.90
22235;DHT22;11286;45.596;5.284;2022-12-18T15:51:33;11.20;99.90
22235;DHT22;11286;45.596;5.284;2022-12-18T15:54:01;10.70;99.90
22235;DHT22;11286;45.596;5.284;2022-12-18T15:56:29;11.00;99.90
22235;DHT22;11286;45.596;5.284;2022-12-18T15:59:17;11.20;99.90
22235;DHT22;11286;45.596;5.284;2022-12-18T16:01:45;10.90;99.90
22235;DHT22;11286;45.596;5.284;2022-12-18T16:04:15;11.10;99.90
22235;DHT22;11286;45.596;5.284;2022-12-18T16:06:42;11.00;99.90
22235;DHT22;11286;45.596;5.284;2022-12-18T16:09:08;11.20;99.90
22235;DHT22;11286;45.596;5.284;2022-12-18T16:11:36;10.40;99.90
22235;DHT22;11286;45.596;5.284;2022-12-18T16:14:21;10.30;99.90
22235;DHT22;11286;45.596;5.284;2022-12-18T16:16:50;10.20;99.90
22235;DHT22;11286;45.596;5.284;2022-12-18T16:19:16;10.60;99.90
22235;DHT22;11286;45.596;5.284;2022-12-18T16:21:43;9.80;99.90
22235;DHT22;11286;45.596;5.284;2022-12-18T16:24:25;9.90;99.90
22235;DHT22;11286;45.596;5.284;2022-12-18T16:26:52;10.10;99.90
22235;DHT22;11286;45.596;5.284;2022-12-18T16:29:18;9.90;99.90
22235;DHT22;11286;45.596;5.284;2022-12-18T16:31:44;10.00;99.90
22235;DHT22;11286;45.596;5.284;2022-12-18T16:36:51;10.40;99.90
22235;DHT22;11286;45.596;5.284;2022-12-18T16:39:19;9.50;99.90
22235;DHT22;11286;45.596;5.284;2022-12-18T16:41:45;9.80;99.90
22235;DHT22;11286;45.596;5.284;2022-12-18T16:44:11;9.90;99.90
22235;DHT22;11286;45.596;5.284;2022-12-18T16:46:37;9.80;99.90
22235;DHT22;11286;45.596;5.284;2022-12-18T16:49:03;9.10;99.90
22235;DHT22;11286;45.596;5.284;2022-12-18T16:51:29;9.20;99.90
22235;DHT22;11286;45.596;5.284;2022-12-18T16:53:55;9.50;99.90
22235;DHT22;11286;45.596;5.284;2022-12-18T16:56:21;8.90;99.90
22235;DHT22;11286;45.596;5.284;2022-12-18T16:58:51;8.90;99.90
22235;DHT22;11286;45.596;5.284;2022-12-18T17:01:17;8.80;99.90
22235;DHT22;11286;45.596;5.284;2022-12-18T17:03:42;9.30;99.90
22235;DHT22;11286;45.596;5.284;2022-12-18T17:06:08;9.00;99.90
22235;DHT22;11286;45.596;5.284;2022-12-18T17:08:34;9.00;99.90
22235;DHT22;11286;45.596;5.284;2022-12-18T17:11:04;8.80;99.90
22235;DHT22;11286;45.596;5.284;2022-12-18T17:13:31;9.10;99.90
22235;DHT22;11286;45.596;5.284;2022-12-18T17:16:04;8.90;99.90
22235;DHT22;11286;45.596;5.284;2022-12-18T17:18:31;9.20;99.90
22235;DHT22;11286;45.596;5.284;2022-12-18T17:21:02;9.10;99.90
22235;DHT22;11286;45.596;5.284;2022-12-18T17:23:28;9.20;99.90
22235;DHT22;11286;45.596;5.284;2022-12-18T17:25:56;9.50;99.90
22235;DHT22;11286;45.596;5.284;2022-12-18T17:28:23;9.20;99.90
22235;DHT22;11286;45.596;5.284;2022-12-18T17:30:50;9.20;99.90
22235;DHT22;11286;45.596;5.284;2022-12-18T17:33:16;9.20;99.90
22235;DHT22;11286;45.596;5.284;2022-12-18T17:35:42;9.10;99.90
22235;DHT22;11286;45.596;5.284;2022-12-18T17:38:08;9.10;99.90
22235;DHT22;11286;45.596;5.284;2022-12-18T17:40:34;8.70;99.90
22235;DHT22;11286;45.596;5.284;2022-12-18T17:43:00;8.30;99.90
22235;DHT22;11286;45.596;5.284;2022-12-18T17:45:25;8.30;99.90
22235;DHT22;11286;45.596;5.284;2022-12-18T17:47:51;8.50;99.90
22235;DHT22;11286;45.596;5.284;2022-12-18T17:50:17;8.50;99.90
22235;DHT22;11286;45.596;5.284;2022-12-18T17:52:42;8.10;99.90
22235;DHT22;11286;45.596;5.284;2022-12-18T17:55:08;7.70;99.90
22235;DHT22;11286;45.596;5.284;2022-12-18T17:57:34;7.90;99.90
22235;DHT22;11286;45.596;5.284;2022-12-18T18:00:02;7.80;99.90
22235;DHT22;11286;45.596;5.284;2022-12-18T18:02:28;8.00;99.90